createdAt,value
2017-08-16T00:02:08.968Z,45.33
2017-08-16T00:04:35.077Z,49.13
2017-08-16T00:07:01.941Z,45.50
2017-08-16T00:09:28.052Z,40.83
2017-08-16T00:11:54.898Z,46.87
2017-08-16T00:14:21.769Z,49.80
2017-08-16T00:16:47.887Z,45.77
2017-08-16T00:19:14.001Z,49.10
2017-08-16T00:21:40.125Z,45.13
2017-08-16T00:24:06.246Z,43.60
2017-08-16T00:26:32.625Z,52.73
2017-08-16T00:28:58.737Z,51.53
2017-08-16T00:31:24.865Z,46.07
2017-08-16T00:33:51.009Z,45.53
2017-08-16T00:36:17.156Z,44.30
2017-08-16T00:38:43.272Z,55.20
2017-08-16T00:41:09.511Z,48.17
2017-08-16T00:43:36.373Z,56.07
2017-08-16T00:46:02.512Z,53.63
2017-08-16T00:48:28.649Z,59.47
2017-08-16T00:50:54.789Z,46.90
2017-08-16T00:53:21.241Z,47.67
2017-08-16T00:55:47.365Z,43.97
2017-08-16T00:58:13.487Z,47.30
2017-08-16T01:00:39.960Z,49.53
2017-08-16T01:03:06.836Z,52.57
2017-08-16T01:05:32.968Z,41.20
2017-08-16T01:07:59.112Z,49.43
2017-08-16T01:10:25.262Z,48.30
2017-08-16T01:12:51.379Z,61.37
2017-08-16T01:15:17.543Z,52.30
2017-08-16T01:17:43.652Z,49.37
2017-08-16T01:20:10.545Z,47.70
2017-08-16T01:22:36.699Z,63.33
2017-08-16T01:25:02.808Z,55.63
2017-08-16T01:27:28.916Z,51.87
2017-08-16T01:29:55.270Z,48.87
2017-08-16T01:32:21.382Z,62.10
2017-08-16T01:34:47.492Z,48.23
2017-08-16T01:37:13.644Z,44.80
2017-08-16T01:39:39.748Z,54.13
2017-08-16T01:42:05.868Z,42.67
2017-08-16T01:44:32.029Z,40.47
2017-08-16T01:46:58.146Z,47.00
2017-08-16T01:49:24.278Z,45.00
2017-08-16T01:51:50.809Z,39.97
2017-08-16T01:54:16.922Z,37.30
2017-08-16T01:56:43.044Z,38.00
2017-08-16T01:59:09.181Z,36.23
2017-08-16T02:01:35.333Z,43.73
2017-08-16T02:04:01.478Z,41.13
2017-08-16T02:06:28.333Z,40.90
2017-08-16T02:08:54.438Z,43.70
2017-08-16T02:11:21.350Z,41.20
2017-08-16T02:13:47.452Z,41.60
2017-08-16T02:16:13.576Z,48.43
2017-08-16T02:18:39.725Z,50.13
2017-08-16T02:21:05.838Z,66.00
2017-08-16T02:23:31.966Z,46.60
2017-08-16T02:25:58.413Z,46.20
2017-08-16T02:28:24.522Z,45.77
2017-08-16T02:30:50.650Z,43.40
2017-08-16T02:33:16.801Z,55.67
2017-08-16T02:35:42.908Z,53.97
2017-08-16T02:38:09.041Z,63.57
2017-08-16T02:40:35.193Z,64.43
2017-08-16T02:43:02.076Z,70.80
2017-08-16T02:45:28.180Z,79.13
2017-08-16T02:47:54.349Z,113.30
2017-08-16T02:50:20.460Z,96.33
2017-08-16T02:52:46.590Z,115.37
2017-08-16T02:55:12.773Z,75.03
2017-08-16T02:57:39.648Z,73.97
2017-08-16T03:00:05.801Z,92.10
2017-08-16T03:02:31.983Z,82.60
2017-08-16T03:04:58.127Z,72.93
2017-08-16T03:07:24.268Z,68.50
2017-08-16T03:09:50.445Z,70.50
2017-08-16T03:12:17.323Z,67.70
2017-08-16T03:14:43.478Z,71.17
2017-08-16T03:17:09.631Z,106.93
2017-08-16T03:19:35.782Z,92.87
2017-08-16T03:22:01.947Z,92.50
2017-08-16T03:24:28.288Z,115.73
2017-08-16T03:26:54.432Z,100.77
2017-08-16T03:29:20.553Z,103.73
2017-08-16T03:31:46.709Z,100.77
2017-08-16T03:34:13.642Z,101.03
2017-08-16T03:36:39.763Z,101.90
2017-08-16T03:39:05.940Z,122.63
2017-08-16T03:41:32.061Z,121.00
2017-08-16T03:43:58.189Z,126.83
2017-08-16T03:46:24.341Z,128.10
2017-08-16T03:48:50.469Z,118.33
2017-08-16T03:51:16.654Z,122.57
2017-08-16T03:53:42.786Z,227.83
2017-08-16T03:56:08.933Z,132.93
2017-08-16T03:58:35.080Z,139.17
2017-08-16T04:01:01.238Z,152.90
2017-08-16T04:03:28.129Z,266.07
2017-08-16T04:05:54.552Z,172.13
2017-08-16T04:08:20.690Z,259.60
2017-08-16T04:10:46.829Z,236.47
2017-08-16T04:13:12.987Z,240.93
2017-08-16T04:15:39.857Z,252.20
2017-08-16T04:18:05.996Z,178.47
2017-08-16T04:20:32.348Z,170.07
2017-08-16T04:22:58.504Z,169.30
2017-08-16T04:25:24.624Z,375.07
2017-08-16T04:27:50.792Z,164.80
2017-08-16T04:30:16.932Z,208.27
2017-08-16T04:32:43.073Z,175.60
2017-08-16T04:35:09.465Z,219.57
2017-08-16T04:37:35.614Z,224.90
2017-08-16T04:40:02.157Z,164.23
2017-08-16T04:42:28.336Z,200.07
2017-08-16T04:44:55.242Z,179.03
2017-08-16T04:47:21.384Z,172.00
2017-08-16T04:49:47.533Z,200.07
2017-08-16T04:52:14.411Z,204.03
2017-08-16T04:54:40.557Z,151.67
2017-08-16T04:57:06.724Z,164.67
2017-08-16T04:59:34.339Z,187.03
2017-08-16T05:02:01.278Z,167.70
2017-08-16T05:04:27.425Z,165.67
2017-08-16T05:06:53.548Z,162.63
2017-08-16T05:09:19.684Z,140.83
2017-08-16T05:11:45.830Z,177.77
2017-08-16T05:14:12.008Z,168.60
2017-08-16T05:16:38.561Z,144.93
2017-08-16T05:19:04.729Z,150.30
2017-08-16T05:21:30.856Z,141.67
2017-08-16T05:23:57.771Z,140.47
2017-08-16T05:26:23.924Z,156.53
2017-08-16T05:28:50.801Z,124.80
2017-08-16T05:31:16.946Z,139.23
2017-08-16T05:33:43.092Z,141.93
2017-08-16T05:36:09.257Z,134.97
2017-08-16T05:38:36.221Z,129.63
2017-08-16T05:41:02.377Z,145.53
2017-08-16T05:43:28.853Z,131.30
2017-08-16T05:45:55.722Z,140.40
2017-08-16T05:48:21.860Z,120.87
2017-08-16T05:50:48.038Z,108.20
2017-08-16T05:53:14.905Z,121.23
2017-08-16T05:55:41.027Z,104.83
2017-08-16T05:58:07.140Z,113.97
2017-08-16T06:00:34.024Z,105.87
2017-08-16T06:03:00.493Z,104.97
2017-08-16T06:05:26.636Z,111.67
2017-08-16T06:07:52.773Z,108.63
2017-08-16T06:10:19.037Z,104.20
2017-08-16T06:12:45.173Z,104.07
2017-08-16T06:15:11.284Z,88.47
2017-08-16T06:17:37.640Z,92.27
2017-08-16T06:20:03.764Z,95.43
2017-08-16T06:22:29.872Z,78.60
2017-08-16T06:24:56.016Z,87.37
2017-08-16T06:27:22.138Z,73.80
2017-08-16T06:29:48.246Z,80.17
2017-08-16T06:32:14.600Z,73.90
2017-08-16T06:34:40.712Z,87.20
2017-08-16T06:37:06.832Z,66.10
2017-08-16T06:39:33.180Z,69.07
2017-08-16T06:41:59.298Z,68.50
2017-08-16T06:44:25.422Z,64.93
2017-08-16T06:46:51.557Z,60.40
2017-08-16T06:49:17.681Z,64.83
2017-08-16T06:51:43.809Z,58.83
2017-08-16T06:54:10.058Z,59.70
2017-08-16T06:56:36.184Z,63.90
2017-08-16T06:59:02.295Z,58.87
2017-08-16T07:01:28.434Z,52.90
2017-08-16T07:03:54.540Z,70.70
2017-08-16T07:06:20.653Z,52.87
2017-08-16T07:08:46.812Z,56.87
2017-08-16T07:11:12.937Z,57.40
2017-08-16T07:13:39.058Z,48.87
2017-08-16T07:16:05.475Z,48.83
2017-08-16T07:18:31.593Z,55.77
2017-08-16T07:20:57.715Z,41.97
2017-08-16T07:23:23.852Z,34.40
2017-08-16T07:25:49.965Z,32.40
2017-08-16T07:28:16.096Z,36.87
2017-08-16T07:30:42.241Z,27.03
2017-08-16T07:33:08.556Z,72.20
2017-08-16T07:35:34.668Z,24.40
2017-08-16T07:38:00.808Z,73.60
2017-08-16T07:40:26.938Z,45.47
2017-08-16T07:42:53.050Z,34.03
2017-08-16T07:45:19.217Z,36.07
2017-08-16T07:47:45.324Z,23.77
2017-08-16T07:50:11.438Z,42.67
2017-08-16T07:52:37.579Z,21.63
2017-08-16T07:55:03.696Z,32.00
2017-08-16T07:57:29.821Z,19.00
2017-08-16T07:59:55.964Z,15.03
2017-08-16T08:02:22.072Z,22.93
2017-08-16T08:04:48.188Z,19.97
2017-08-16T08:07:14.621Z,14.03
2017-08-16T08:09:40.736Z,17.60
2017-08-16T08:12:06.857Z,19.37
2017-08-16T08:14:33.021Z,19.27
2017-08-16T08:16:59.130Z,18.00
2017-08-16T08:19:25.242Z,18.47
2017-08-16T08:21:51.354Z,10.90
2017-08-16T08:24:17.604Z,12.97
2017-08-16T08:26:43.709Z,20.37
2017-08-16T08:29:09.832Z,13.60
2017-08-16T08:31:35.992Z,15.37
2017-08-16T08:34:02.140Z,12.20
2017-08-16T08:36:29.004Z,10.70
2017-08-16T08:38:55.153Z,13.90
2017-08-16T08:41:21.261Z,10.40
2017-08-16T08:43:47.375Z,18.77
2017-08-16T08:46:14.257Z,21.80
2017-08-16T08:48:40.377Z,10.53
2017-08-16T08:51:06.530Z,8.53
2017-08-16T08:53:32.685Z,11.10
2017-08-16T08:55:59.539Z,11.00
2017-08-16T08:58:26.398Z,9.00
2017-08-16T09:00:52.761Z,6.10
2017-08-16T09:03:18.938Z,8.40
2017-08-16T09:05:45.047Z,9.33
2017-08-16T09:08:11.210Z,6.00
2017-08-16T09:10:37.316Z,6.90
2017-08-16T09:13:04.420Z,4.67
2017-08-16T09:15:30.741Z,6.77
2017-08-16T09:17:56.850Z,5.67
2017-08-16T09:20:22.969Z,6.53
2017-08-16T09:22:49.099Z,5.67
2017-08-16T09:25:15.237Z,6.00
2017-08-16T09:27:41.354Z,7.00
2017-08-16T09:30:07.478Z,8.40
2017-08-16T09:32:33.632Z,6.37
2017-08-16T09:35:00.057Z,5.13
2017-08-16T09:37:26.161Z,10.60
2017-08-16T09:39:52.279Z,5.63
2017-08-16T09:42:18.737Z,6.90
2017-08-16T09:44:44.852Z,9.57
2017-08-16T09:47:10.963Z,4.07
2017-08-16T09:49:37.120Z,6.80
2017-08-16T09:52:03.233Z,5.07
2017-08-16T09:54:29.369Z,7.63
2017-08-16T09:56:55.541Z,4.20
2017-08-16T09:59:22.417Z,7.60
2017-08-16T10:01:48.544Z,4.43
2017-08-16T10:04:14.672Z,5.67
2017-08-16T10:06:40.910Z,3.37
2017-08-16T10:09:07.040Z,5.40
2017-08-16T10:11:33.155Z,3.53
2017-08-16T10:13:59.384Z,4.70
2017-08-16T10:16:25.734Z,3.37
2017-08-16T10:18:51.846Z,4.73
2017-08-16T10:21:17.966Z,3.07
2017-08-16T10:23:44.123Z,3.13
2017-08-16T10:26:10.280Z,4.33
2017-08-16T10:28:37.137Z,3.57
2017-08-16T10:31:03.248Z,6.93
2017-08-16T10:33:30.349Z,5.47
2017-08-16T10:35:56.463Z,16.13
2017-08-16T10:38:22.573Z,32.20
2017-08-16T10:40:48.929Z,3.53
2017-08-16T10:43:15.050Z,3.23
2017-08-16T10:45:41.152Z,6.60
2017-08-16T10:48:07.286Z,8.10
2017-08-16T10:50:33.429Z,7.30
2017-08-16T10:52:59.557Z,3.00
2017-08-16T10:55:25.717Z,6.07
2017-08-16T10:57:52.576Z,8.83
2017-08-16T11:00:19.446Z,4.17
2017-08-16T11:02:45.584Z,10.73
2017-08-16T11:05:11.738Z,4.50
2017-08-16T11:07:37.877Z,7.03
2017-08-16T11:10:04.277Z,3.63
2017-08-16T11:12:30.392Z,6.17
2017-08-16T11:14:56.519Z,4.13
2017-08-16T11:17:22.663Z,19.37
2017-08-16T11:19:48.781Z,9.93
2017-08-16T11:22:14.884Z,1.90
2017-08-16T11:24:41.050Z,10.83
2017-08-16T11:27:07.168Z,3.03
2017-08-16T11:29:33.280Z,6.40
2017-08-16T11:31:59.397Z,4.53
2017-08-16T11:34:25.510Z,3.50
2017-08-16T11:36:51.760Z,2.60
2017-08-16T11:39:17.872Z,3.80
2017-08-16T11:41:44.006Z,2.43
2017-08-16T11:44:10.129Z,2.90
2017-08-16T11:46:36.336Z,2.00
2017-08-16T11:49:02.490Z,1.80
2017-08-16T11:51:28.625Z,5.40
2017-08-16T11:53:54.740Z,1.80
2017-08-16T11:56:20.893Z,2.23
2017-08-16T11:58:47.003Z,3.47
2017-08-16T12:01:13.130Z,4.07
2017-08-16T12:03:39.261Z,3.87
2017-08-16T12:06:05.409Z,3.30
2017-08-16T12:08:32.630Z,2.13
2017-08-16T12:10:59.028Z,2.60
2017-08-16T12:13:25.150Z,2.17
2017-08-16T12:15:51.311Z,2.20
2017-08-16T12:18:17.467Z,7.03
2017-08-16T12:20:43.588Z,5.60
2017-08-16T12:23:10.108Z,1.73
2017-08-16T12:25:36.228Z,1.60
2017-08-16T12:28:02.344Z,1.70
2017-08-16T12:30:28.504Z,3.20
2017-08-16T12:32:54.908Z,2.63
2017-08-16T12:35:21.021Z,12.03
2017-08-16T12:37:47.185Z,3.30
2017-08-16T12:40:13.321Z,4.50
2017-08-16T12:42:40.168Z,1.87
2017-08-16T12:45:07.201Z,1.53
2017-08-16T12:47:34.081Z,2.90
2017-08-16T12:50:00.188Z,1.70
2017-08-16T12:52:27.094Z,1.40
2017-08-16T12:54:53.200Z,2.40
2017-08-16T12:57:19.320Z,2.20
2017-08-16T12:59:45.468Z,2.20
2017-08-16T13:02:11.581Z,1.20
2017-08-16T13:04:37.684Z,2.60
2017-08-16T13:07:04.040Z,1.30
2017-08-16T13:09:30.170Z,1.47
2017-08-16T13:11:56.364Z,12.03
2017-08-16T13:14:22.833Z,2.80
2017-08-16T13:16:48.944Z,7.13
2017-08-16T13:19:15.067Z,6.23
2017-08-16T13:21:41.409Z,3.40
2017-08-16T13:24:07.532Z,1.70
2017-08-16T13:26:33.665Z,1.40
2017-08-16T13:28:59.772Z,4.23
2017-08-16T13:31:25.907Z,1.77
2017-08-16T13:33:52.751Z,1.10
2017-08-16T13:36:18.900Z,4.17
2017-08-16T13:38:45.018Z,1.87
2017-08-16T13:41:11.146Z,3.30
2017-08-16T13:43:37.260Z,2.50
2017-08-16T13:46:03.401Z,1.67
2017-08-16T13:48:29.540Z,1.10
2017-08-16T13:50:56.403Z,4.63
2017-08-16T13:53:22.559Z,21.73
2017-08-16T13:55:48.677Z,55.83
2017-08-16T13:58:14.794Z,1.67
2017-08-16T14:00:40.938Z,5.10
2017-08-16T14:03:07.071Z,3.30
2017-08-16T14:05:33.176Z,2.20
2017-08-16T14:07:59.640Z,7.53
2017-08-16T14:10:25.776Z,1.77
2017-08-16T14:12:51.913Z,2.43
2017-08-16T14:15:18.055Z,11.97
2017-08-16T14:17:44.913Z,1.47
2017-08-16T14:20:11.032Z,1.80
2017-08-16T14:22:37.934Z,1.23
2017-08-16T14:25:04.054Z,2.30
2017-08-16T14:27:30.174Z,4.07
2017-08-16T14:29:56.309Z,9.00
2017-08-16T14:32:22.443Z,5.10
2017-08-16T14:34:48.674Z,1.87
2017-08-16T14:37:14.909Z,5.20
2017-08-16T14:39:41.034Z,1.87
2017-08-16T14:42:07.185Z,1.83
2017-08-16T14:44:34.056Z,2.63
2017-08-16T14:47:00.185Z,1.63
2017-08-16T14:49:26.284Z,8.30
2017-08-16T14:51:52.440Z,1.03
2017-08-16T14:54:18.561Z,1.93
2017-08-16T14:56:44.671Z,0.90
2017-08-16T14:59:10.815Z,6.10
2017-08-16T15:01:36.930Z,20.57
2017-08-16T15:04:03.050Z,2.00
2017-08-16T15:06:29.206Z,1.40
2017-08-16T15:08:55.321Z,2.70
2017-08-16T15:11:21.444Z,3.00
2017-08-16T15:13:47.583Z,19.97
2017-08-16T15:16:13.698Z,2.20
2017-08-16T15:18:39.853Z,22.83
2017-08-16T15:21:05.997Z,12.60
2017-08-16T15:23:32.883Z,2.63
2017-08-16T15:25:59.014Z,4.40
2017-08-16T15:28:25.190Z,6.20
2017-08-16T15:30:51.299Z,1.33
2017-08-16T15:33:17.421Z,1.33
2017-08-16T15:35:43.589Z,2.20
2017-08-16T15:38:09.704Z,1.57
2017-08-16T15:40:36.580Z,2.63
2017-08-16T15:43:03.040Z,1.13
2017-08-16T15:45:29.152Z,2.10
2017-08-16T15:47:55.265Z,1.33
2017-08-16T15:50:21.399Z,2.23
2017-08-16T15:52:47.521Z,1.47
2017-08-16T15:55:13.642Z,1.60
2017-08-16T15:57:39.774Z,1.10
2017-08-16T16:00:05.916Z,2.20
2017-08-16T16:02:32.113Z,2.27
2017-08-16T16:04:58.220Z,1.30
2017-08-16T16:07:24.338Z,1.40
2017-08-16T16:09:51.444Z,1.77
2017-08-16T16:12:17.548Z,1.60
2017-08-16T16:14:43.724Z,2.60
2017-08-16T16:17:10.252Z,2.40
2017-08-16T16:19:36.384Z,0.97
2017-08-16T16:22:02.505Z,2.13
2017-08-16T16:24:28.672Z,2.10
2017-08-16T16:26:54.808Z,3.67
2017-08-16T16:29:20.938Z,2.60
2017-08-16T16:31:47.065Z,1.53
2017-08-16T16:34:13.217Z,2.07
2017-08-16T16:36:39.341Z,4.37
2017-08-16T16:39:05.460Z,1.50
2017-08-16T16:41:32.051Z,31.10
2017-08-16T16:43:58.181Z,2.03
2017-08-16T16:46:24.301Z,1.30
2017-08-16T16:48:50.475Z,15.40
2017-08-16T16:51:16.594Z,92.13
2017-08-16T16:53:42.700Z,2.13
2017-08-16T16:56:08.869Z,71.50
2017-08-16T16:58:35.002Z,2.70
2017-08-16T17:01:01.136Z,4.00
2017-08-16T17:03:27.293Z,36.80
2017-08-16T17:05:53.413Z,25.60
2017-08-16T17:08:19.541Z,2.80
2017-08-16T17:10:46.022Z,15.37
2017-08-16T17:13:12.157Z,2.90
2017-08-16T17:15:38.268Z,99.30
2017-08-16T17:18:04.702Z,3.10
2017-08-16T17:20:30.837Z,32.90
2017-08-16T17:22:56.970Z,27.47
2017-08-16T17:25:23.260Z,286.67
2017-08-16T17:27:49.381Z,88.00
2017-08-16T17:30:15.526Z,19.43
2017-08-16T17:32:41.663Z,5.23
2017-08-16T17:35:07.799Z,523.57
2017-08-16T17:37:33.908Z,17.73
2017-08-16T17:40:00.340Z,15.90
2017-08-16T17:42:26.477Z,383.20
2017-08-16T17:44:52.590Z,50.47
2017-08-16T17:47:18.824Z,153.40
2017-08-16T17:49:44.943Z,87.10
2017-08-16T17:52:11.863Z,19.13
2017-08-16T17:54:38.012Z,11.10
2017-08-16T17:57:04.150Z,208.53
2017-08-16T17:59:30.270Z,326.17
2017-08-16T18:01:56.709Z,432.40
2017-08-16T18:04:22.839Z,139.97
2017-08-16T18:06:48.964Z,161.03
2017-08-16T18:09:15.500Z,96.30
2017-08-16T18:11:41.617Z,199.17
2017-08-16T18:14:07.749Z,189.23
2017-08-16T18:16:33.875Z,204.30
2017-08-16T18:18:59.999Z,134.63
2017-08-16T18:21:26.166Z,217.53
2017-08-16T18:23:53.024Z,166.00
2017-08-16T18:26:19.161Z,112.53
2017-08-16T18:28:45.300Z,62.97
2017-08-16T18:31:11.430Z,101.00
2017-08-16T18:33:37.618Z,68.93
2017-08-16T18:36:03.745Z,2.83
2017-08-16T18:38:29.902Z,211.33
2017-08-16T18:40:56.022Z,355.47
2017-08-16T18:43:22.498Z,236.53
2017-08-16T18:45:48.652Z,5.97
2017-08-16T18:48:15.525Z,2.90
2017-08-16T18:50:41.649Z,293.43
2017-08-16T18:53:07.923Z,14.83
2017-08-16T18:55:34.042Z,74.17
2017-08-16T18:58:00.172Z,166.57
2017-08-16T19:00:26.314Z,43.90
2017-08-16T19:02:53.181Z,110.70
2017-08-16T19:05:19.304Z,73.47
2017-08-16T19:07:45.676Z,94.17
2017-08-16T19:10:11.794Z,7.77
2017-08-16T19:12:37.923Z,15.83
2017-08-16T19:15:04.101Z,22.00
2017-08-16T19:17:30.218Z,76.07
2017-08-16T19:19:57.096Z,5.10
2017-08-16T19:22:23.254Z,12.17
2017-08-16T19:24:49.372Z,72.50
2017-08-16T19:27:15.518Z,23.30
2017-08-16T19:29:41.838Z,57.83
2017-08-16T19:32:07.953Z,68.00
2017-08-16T19:34:34.077Z,36.60
2017-08-16T19:37:00.221Z,43.07
2017-08-16T19:39:26.350Z,16.20
2017-08-16T19:41:52.472Z,20.50
2017-08-16T19:44:18.759Z,13.40
2017-08-16T19:46:44.885Z,16.13
2017-08-16T19:49:11.013Z,32.80
2017-08-16T19:51:37.557Z,10.70
2017-08-16T19:54:03.714Z,82.20
2017-08-16T19:56:29.843Z,25.97
2017-08-16T19:58:56.027Z,49.47
2017-08-16T20:01:22.153Z,27.93
2017-08-16T20:03:48.289Z,49.13
2017-08-16T20:06:14.462Z,47.13
2017-08-16T20:08:41.966Z,42.93
2017-08-16T20:11:08.075Z,55.60
2017-08-16T20:13:34.217Z,63.37
2017-08-16T20:16:00.344Z,42.23
2017-08-16T20:18:26.505Z,25.77
2017-08-16T20:20:52.620Z,49.27
2017-08-16T20:23:18.749Z,49.90
2017-08-16T20:25:44.880Z,35.40
2017-08-16T20:28:11.000Z,15.47
2017-08-16T20:30:37.130Z,26.57
2017-08-16T20:33:03.289Z,13.30
2017-08-16T20:35:30.157Z,25.60
2017-08-16T20:37:56.283Z,20.07
2017-08-16T20:40:22.405Z,22.20
2017-08-16T20:42:48.512Z,57.50
2017-08-16T20:45:15.457Z,9.17
2017-08-16T20:47:42.308Z,16.53
2017-08-16T20:50:08.426Z,26.47
2017-08-16T20:52:34.594Z,40.30
2017-08-16T20:55:00.727Z,42.23
2017-08-16T20:57:26.849Z,31.23
2017-08-16T20:59:53.021Z,17.00
2017-08-16T21:02:19.885Z,21.13
2017-08-16T21:04:46.001Z,52.37
2017-08-16T21:07:12.906Z,28.70
2017-08-16T21:09:39.029Z,37.10
2017-08-16T21:12:05.147Z,32.40
2017-08-16T21:14:31.320Z,130.57
2017-08-16T21:16:58.164Z,13.73
2017-08-16T21:19:25.016Z,14.63
2017-08-16T21:21:51.157Z,11.17
2017-08-16T21:24:17.282Z,8.00
2017-08-16T21:26:43.444Z,6.83
2017-08-16T21:29:09.590Z,13.40
2017-08-16T21:31:35.741Z,8.47
2017-08-16T21:34:01.898Z,11.97
2017-08-16T21:36:28.028Z,7.10
2017-08-16T21:38:54.153Z,8.63
2017-08-16T21:41:20.317Z,11.83
2017-08-16T21:43:53.405Z,9.63
2017-08-16T21:46:20.157Z,11.47
2017-08-16T21:48:47.024Z,16.47
2017-08-16T21:51:13.169Z,113.93
2017-08-16T21:53:39.317Z,62.63
2017-08-16T21:56:05.441Z,67.63
2017-08-16T21:58:31.560Z,22.70
2017-08-16T22:00:57.710Z,38.93
2017-08-16T22:03:23.815Z,42.50
2017-08-16T22:05:49.933Z,47.40
2017-08-16T22:08:16.079Z,46.83
2017-08-16T22:10:42.185Z,45.80
2017-08-16T22:13:08.296Z,28.13
2017-08-16T22:15:34.435Z,24.23
2017-08-16T22:18:00.561Z,33.67
2017-08-16T22:20:26.701Z,30.83
2017-08-16T22:22:52.861Z,13.63
2017-08-16T22:25:19.722Z,10.90
2017-08-16T22:27:45.846Z,6.87
2017-08-16T22:30:12.005Z,11.77
2017-08-16T22:32:38.116Z,7.70
2017-08-16T22:35:04.250Z,14.53
2017-08-16T22:37:30.600Z,12.27
2017-08-16T22:39:56.730Z,15.40
2017-08-16T22:42:22.841Z,17.03
2017-08-16T22:44:48.961Z,12.50
2017-08-16T22:47:15.078Z,13.10
2017-08-16T22:49:41.432Z,22.10
2017-08-16T22:52:07.544Z,19.77
2017-08-16T22:54:33.661Z,14.60
2017-08-16T22:56:59.901Z,16.07
2017-08-16T22:59:26.008Z,10.53
2017-08-16T23:01:52.121Z,11.20
2017-08-16T23:04:18.266Z,10.33
2017-08-16T23:06:44.398Z,9.90
2017-08-16T23:09:10.525Z,8.60
2017-08-16T23:11:36.972Z,13.40
2017-08-16T23:14:03.080Z,8.60
2017-08-16T23:16:29.200Z,10.03
2017-08-16T23:18:55.353Z,7.23
2017-08-16T23:21:21.461Z,10.40
2017-08-16T23:23:47.572Z,7.10
2017-08-16T23:26:13.732Z,12.27
2017-08-16T23:28:39.852Z,8.57
2017-08-16T23:31:05.964Z,6.47
2017-08-16T23:33:32.116Z,9.83
2017-08-16T23:35:58.238Z,8.37
2017-08-16T23:38:24.364Z,8.07
2017-08-16T23:40:50.511Z,9.67
2017-08-16T23:43:17.381Z,5.10
2017-08-16T23:45:43.500Z,5.23
2017-08-16T23:48:10.421Z,7.30
2017-08-16T23:50:36.542Z,6.93
2017-08-16T23:53:02.649Z,8.70
2017-08-16T23:55:28.781Z,12.33
2017-08-16T23:57:54.892Z,6.30
